createdAt,value
2022-11-25T00:01:09.986Z,18.97
2022-11-25T00:03:36.738Z,18.83
2022-11-25T00:06:13.429Z,18.53
2022-11-25T00:08:41.610Z,19.67
2022-11-25T00:11:08.948Z,20.03
2022-11-25T00:13:36.257Z,20.07
2022-11-25T00:16:07.999Z,19.47
2022-11-25T00:18:34.876Z,19.37
2022-11-25T00:21:12.467Z,20.03
2022-11-25T00:23:39.074Z,21.27
2022-11-25T00:26:10.250Z,20.30
2022-11-25T00:28:38.404Z,22.40
2022-11-25T00:31:09.473Z,20.17
2022-11-25T00:33:36.356Z,22.67
2022-11-25T00:36:04.315Z,22.53
2022-11-25T00:38:30.781Z,24.43
2022-11-25T00:41:15.855Z,24.33
2022-11-25T00:44:00.990Z,23.63
2022-11-25T00:46:27.459Z,23.17
2022-11-25T00:48:53.912Z,24.47
2022-11-25T00:51:20.340Z,23.87
2022-11-25T00:53:46.763Z,23.10
2022-11-25T00:56:13.206Z,23.20
2022-11-25T00:58:40.570Z,24.17
2022-11-25T01:01:07.079Z,23.07
2022-11-25T01:03:34.941Z,23.23
2022-11-25T01:06:02.172Z,24.30
2022-11-25T01:08:33.323Z,23.50
2022-11-25T01:11:00.734Z,24.73
2022-11-25T01:13:27.303Z,23.27
2022-11-25T01:15:53.788Z,22.90
2022-11-25T01:18:20.340Z,23.60
2022-11-25T01:20:46.807Z,22.60
2022-11-25T01:23:13.290Z,26.53
2022-11-25T01:25:40.268Z,24.63
2022-11-25T01:28:06.711Z,23.67
2022-11-25T01:30:35.919Z,22.70
2022-11-25T01:33:06.231Z,23.83
2022-11-25T01:35:32.693Z,23.07
2022-11-25T01:37:59.110Z,22.90
2022-11-25T01:40:25.584Z,23.90
2022-11-25T01:42:52.017Z,24.00
2022-11-25T01:45:28.374Z,24.97
2022-11-25T01:47:58.796Z,24.27
2022-11-25T01:50:26.479Z,25.33
2022-11-25T01:52:53.929Z,23.73
2022-11-25T01:55:27.075Z,26.03
2022-11-25T01:58:17.851Z,22.70
2022-11-25T02:00:51.463Z,24.00
2022-11-25T02:03:26.048Z,23.27
2022-11-25T02:06:17.737Z,22.87
2022-11-25T02:08:48.533Z,24.77
2022-11-25T02:11:16.182Z,26.10
2022-11-25T02:13:43.521Z,23.83
2022-11-25T02:16:09.987Z,25.63
2022-11-25T02:18:36.462Z,26.60
2022-11-25T02:21:02.955Z,23.60
2022-11-25T02:23:36.187Z,24.67
2022-11-25T02:26:02.972Z,25.63
2022-11-25T02:28:31.547Z,24.27
2022-11-25T02:30:58.588Z,25.00
2022-11-25T02:33:25.918Z,23.83
2022-11-25T02:35:59.357Z,24.33
2022-11-25T02:38:46.018Z,22.80
2022-11-25T02:41:21.508Z,23.07
2022-11-25T02:43:48.331Z,26.50
2022-11-25T02:46:21.804Z,23.23
2022-11-25T02:51:35.699Z,23.63
2022-11-25T02:54:02.329Z,23.73
2022-11-25T02:56:31.689Z,22.57
2022-11-25T02:58:58.645Z,22.70
2022-11-25T03:01:25.219Z,22.60
2022-11-25T03:03:51.742Z,24.37
2022-11-25T03:06:18.512Z,21.30
2022-11-25T03:08:45.026Z,23.10
2022-11-25T03:11:11.493Z,25.03
2022-11-25T03:13:37.947Z,22.77
2022-11-25T03:16:04.827Z,23.23
2022-11-25T03:18:31.330Z,22.87
2022-11-25T03:20:57.776Z,22.70
2022-11-25T03:23:24.803Z,23.00
2022-11-25T03:25:51.274Z,22.60
2022-11-25T03:28:17.740Z,23.20
2022-11-25T03:30:44.320Z,22.50
2022-11-25T03:33:11.048Z,21.87
2022-11-25T03:35:37.549Z,21.20
2022-11-25T03:38:04.119Z,21.53
2022-11-25T03:40:30.557Z,22.40
2022-11-25T03:42:57.008Z,21.23
2022-11-25T03:45:23.438Z,23.10
2022-11-25T03:47:49.962Z,21.40
2022-11-25T03:50:16.728Z,23.53
2022-11-25T03:52:43.224Z,23.03
2022-11-25T03:55:10.183Z,23.07
2022-11-25T03:57:36.670Z,23.27
2022-11-25T04:00:04.627Z,23.33
2022-11-25T04:02:31.127Z,23.90
2022-11-25T04:04:57.819Z,23.50
2022-11-25T04:07:24.312Z,23.97
2022-11-25T04:09:50.832Z,25.57
2022-11-25T04:12:36.034Z,24.07
2022-11-25T04:15:03.034Z,24.97
2022-11-25T04:17:29.495Z,24.33
2022-11-25T04:19:55.944Z,24.50
2022-11-25T04:22:22.410Z,23.97
2022-11-25T04:24:48.896Z,24.70
2022-11-25T04:27:15.350Z,23.07
2022-11-25T04:29:41.780Z,23.67
2022-11-25T04:32:08.230Z,23.47
2022-11-25T04:34:34.998Z,23.60
2022-11-25T04:37:01.592Z,22.80
2022-11-25T04:39:28.020Z,23.20
2022-11-25T04:42:17.343Z,22.87
2022-11-25T04:44:55.903Z,23.17
2022-11-25T04:47:30.382Z,24.97
2022-11-25T04:49:56.812Z,24.27
2022-11-25T04:52:23.338Z,24.40
2022-11-25T04:54:49.800Z,23.67
2022-11-25T04:57:16.806Z,23.97
2022-11-25T04:59:43.744Z,23.10
2022-11-25T05:02:17.855Z,25.77
2022-11-25T05:04:45.742Z,23.80
2022-11-25T05:07:13.255Z,25.93
2022-11-25T05:09:40.036Z,26.03
2022-11-25T05:12:07.976Z,25.37
2022-11-25T05:14:35.894Z,26.53
2022-11-25T05:17:03.902Z,26.47
2022-11-25T05:19:30.437Z,26.57
2022-11-25T05:21:56.870Z,24.27
2022-11-25T05:24:24.333Z,27.63
2022-11-25T05:26:50.808Z,27.43
2022-11-25T05:29:17.364Z,26.80
2022-11-25T05:31:43.808Z,27.20
2022-11-25T05:34:10.312Z,28.30
2022-11-25T05:36:37.011Z,26.17
2022-11-25T05:39:04.172Z,26.83
2022-11-25T05:41:30.652Z,26.53
2022-11-25T05:43:57.214Z,26.70
2022-11-25T05:46:23.694Z,26.87
2022-11-25T05:48:53.655Z,25.73
2022-11-25T05:51:20.170Z,27.80
2022-11-25T05:53:46.661Z,25.43
2022-11-25T05:56:13.111Z,24.93
2022-11-25T05:58:39.643Z,26.70
2022-11-25T06:01:10.835Z,25.10
2022-11-25T06:03:37.751Z,28.17
2022-11-25T06:06:05.398Z,26.77
2022-11-25T06:08:32.358Z,24.97
2022-11-25T06:10:58.814Z,26.57
2022-11-25T06:13:25.772Z,26.10
2022-11-25T06:15:52.285Z,32.80
2022-11-25T06:18:19.169Z,28.37
2022-11-25T06:20:45.932Z,31.13
2022-11-25T06:23:12.362Z,28.20
2022-11-25T06:25:38.835Z,26.67
2022-11-25T06:28:12.683Z,26.17
2022-11-25T06:30:39.875Z,27.70
2022-11-25T06:33:06.318Z,26.43
2022-11-25T06:35:32.761Z,27.10
2022-11-25T06:37:59.774Z,27.60
2022-11-25T06:40:26.261Z,28.60
2022-11-25T06:42:52.774Z,26.30
2022-11-25T06:45:19.302Z,27.10
2022-11-25T06:47:45.755Z,25.57
2022-11-25T06:50:12.287Z,29.37
2022-11-25T06:52:38.755Z,27.97
2022-11-25T06:55:05.577Z,26.07
2022-11-25T06:57:32.131Z,24.73
2022-11-25T06:59:58.656Z,26.07
2022-11-25T07:02:25.103Z,23.73
2022-11-25T07:04:51.656Z,23.73
2022-11-25T07:07:18.208Z,22.83
2022-11-25T07:09:44.839Z,23.87
2022-11-25T07:12:12.410Z,26.83
2022-11-25T07:14:39.206Z,28.13
2022-11-25T07:17:11.530Z,22.90
2022-11-25T07:19:38.613Z,21.33
2022-11-25T07:22:05.087Z,25.03
2022-11-25T07:24:31.563Z,24.33
2022-11-25T07:26:58.050Z,26.33
2022-11-25T07:32:11.355Z,23.83
2022-11-25T07:34:38.164Z,27.17
2022-11-25T07:37:04.600Z,23.47
2022-11-25T07:39:31.138Z,22.70
2022-11-25T07:41:57.559Z,24.00
2022-11-25T07:44:24.012Z,22.63
2022-11-25T07:46:51.399Z,23.67
2022-11-25T07:49:20.949Z,25.07
2022-11-25T07:51:48.924Z,22.23
2022-11-25T07:54:15.540Z,22.87
2022-11-25T07:56:44.861Z,20.67
2022-11-25T07:59:21.775Z,21.70
2022-11-25T08:01:55.523Z,20.47
2022-11-25T08:04:22.636Z,22.60
2022-11-25T08:06:51.419Z,20.73
2022-11-25T08:09:20.863Z,20.87
2022-11-25T08:11:48.312Z,21.77
2022-11-25T08:14:15.465Z,22.60
2022-11-25T08:16:42.345Z,20.07
2022-11-25T08:19:11.929Z,21.57
2022-11-25T08:21:38.433Z,23.10
2022-11-25T08:24:05.383Z,21.97
2022-11-25T08:26:36.280Z,21.07
2022-11-25T08:29:04.171Z,20.43
2022-11-25T08:31:33.702Z,21.43
2022-11-25T08:34:00.560Z,21.23
2022-11-25T08:36:28.055Z,20.77
2022-11-25T08:38:57.794Z,20.80
2022-11-25T08:41:27.101Z,20.17
2022-11-25T08:43:53.576Z,19.40
2022-11-25T08:46:22.605Z,18.90
2022-11-25T08:48:49.159Z,18.90
2022-11-25T08:51:18.417Z,18.73
2022-11-25T08:53:45.846Z,18.67
2022-11-25T08:56:12.654Z,19.00
2022-11-25T08:58:39.430Z,17.40
2022-11-25T09:01:07.482Z,20.10
2022-11-25T09:03:43.151Z,17.40
2022-11-25T09:06:10.546Z,17.30
2022-11-25T09:08:37.769Z,18.27
2022-11-25T09:11:04.453Z,22.70
2022-11-25T09:13:30.988Z,17.67
2022-11-25T09:15:57.994Z,17.30
2022-11-25T09:18:26.287Z,17.00
2022-11-25T09:20:54.003Z,16.30
2022-11-25T09:23:20.802Z,16.53
2022-11-25T09:25:54.805Z,16.17
2022-11-25T09:28:22.202Z,16.33
2022-11-25T09:30:49.032Z,22.50
2022-11-25T09:33:15.708Z,18.07
2022-11-25T09:35:42.483Z,19.83
2022-11-25T09:38:09.066Z,16.40
2022-11-25T09:40:53.880Z,17.73
2022-11-25T09:44:11.927Z,16.93
2022-11-25T09:46:47.264Z,16.87
2022-11-25T09:49:32.599Z,16.63
2022-11-25T09:52:37.075Z,14.00
2022-11-25T09:55:17.016Z,13.97
2022-11-25T09:57:49.436Z,14.47
2022-11-25T10:00:19.776Z,14.10
2022-11-25T10:03:01.656Z,15.13
2022-11-25T10:05:34.130Z,13.40
2022-11-25T10:08:07.612Z,14.40
2022-11-25T10:10:46.224Z,13.47
2022-11-25T10:13:21.166Z,15.77
2022-11-25T10:15:50.280Z,15.53
2022-11-25T10:18:34.947Z,14.23
2022-11-25T10:21:01.431Z,20.73
2022-11-25T10:23:32.456Z,17.80
2022-11-25T10:26:10.615Z,14.10
2022-11-25T10:28:38.171Z,14.60
2022-11-25T10:31:11.373Z,14.53
2022-11-25T10:33:41.209Z,18.67
2022-11-25T10:36:11.539Z,18.93
2022-11-25T10:38:45.385Z,15.20
2022-11-25T10:41:16.439Z,16.80
2022-11-25T10:43:43.576Z,17.87
2022-11-25T10:47:11.527Z,19.00
2022-11-25T10:49:31.102Z,16.33
2022-11-25T10:51:57.921Z,17.07
2022-11-25T10:54:27.829Z,17.33
2022-11-25T10:56:57.765Z,13.57
2022-11-25T10:59:25.600Z,42.50
2022-11-25T11:01:53.428Z,29.97
2022-11-25T11:04:20.500Z,47.87
2022-11-25T11:06:49.742Z,15.97
2022-11-25T11:09:33.296Z,14.50
2022-11-25T11:12:27.242Z,15.30
2022-11-25T11:14:55.011Z,17.60
2022-11-25T11:17:34.753Z,21.70
2022-11-25T11:20:04.758Z,16.03
2022-11-25T11:22:32.143Z,14.63
2022-11-25T11:25:29.282Z,15.73
2022-11-25T11:27:56.003Z,22.00
2022-11-25T11:30:28.556Z,14.57
2022-11-25T11:33:02.260Z,13.60
2022-11-25T11:35:53.964Z,15.13
2022-11-25T11:38:27.924Z,13.00
2022-11-25T11:41:00.682Z,12.07
2022-11-25T11:43:48.370Z,13.17
2022-11-25T11:46:37.574Z,11.77
2022-11-25T11:49:41.645Z,13.13
2022-11-25T11:52:43.600Z,14.43
2022-11-25T11:55:45.329Z,13.00
2022-11-25T11:58:21.468Z,14.33
2022-11-25T12:01:07.637Z,13.47
2022-11-25T12:03:39.976Z,14.50
2022-11-25T12:06:06.755Z,14.53
2022-11-25T12:08:51.882Z,15.30
2022-11-25T12:11:23.004Z,14.87
2022-11-25T12:14:11.539Z,14.43
2022-11-25T12:16:43.188Z,14.63
2022-11-25T12:19:31.134Z,15.53
2022-11-25T12:22:08.822Z,15.70
2022-11-25T12:24:58.770Z,17.47
2022-11-25T12:27:47.384Z,18.40
2022-11-25T12:30:19.685Z,16.77
2022-11-25T12:33:04.590Z,16.03
2022-11-25T12:35:37.584Z,19.27
2022-11-25T12:38:18.156Z,16.70
2022-11-25T12:40:54.407Z,15.53
2022-11-25T12:43:39.539Z,17.17
2022-11-25T12:46:18.043Z,17.53
2022-11-25T12:48:44.893Z,18.73
2022-11-25T12:51:20.498Z,18.10
2022-11-25T12:54:17.907Z,18.23
2022-11-25T12:57:07.089Z,20.43
2022-11-25T13:00:06.046Z,18.43
2022-11-25T13:02:54.018Z,17.20
2022-11-25T13:05:54.119Z,16.27
2022-11-25T13:08:38.821Z,18.40
2022-11-25T13:11:11.645Z,17.40
2022-11-25T13:13:47.584Z,18.73
2022-11-25T13:16:14.909Z,19.63
2022-11-25T13:18:44.437Z,21.83
2022-11-25T13:21:13.351Z,20.90
2022-11-25T13:23:52.917Z,17.80
2022-11-25T13:26:28.700Z,21.20
2022-11-25T13:28:56.247Z,19.87
2022-11-25T13:31:25.181Z,18.30
2022-11-25T13:34:30.284Z,17.40
2022-11-25T13:36:58.482Z,16.57
2022-11-25T13:39:33.482Z,21.30
2022-11-25T13:42:10.982Z,23.03
2022-11-25T13:44:50.385Z,25.97
2022-11-25T13:47:35.620Z,26.47
2022-11-25T13:50:04.656Z,20.03
2022-11-25T13:52:35.345Z,21.23
2022-11-25T13:55:29.140Z,16.77
2022-11-25T13:58:10.971Z,19.43
2022-11-25T14:00:37.395Z,20.53
2022-11-25T14:03:19.197Z,18.87
2022-11-25T14:05:57.827Z,18.77
2022-11-25T14:08:43.547Z,18.50
2022-11-25T14:11:09.957Z,16.53
2022-11-25T14:13:58.615Z,18.97
2022-11-25T14:16:43.821Z,15.97
2022-11-25T14:19:50.657Z,16.33
2022-11-25T14:22:35.723Z,15.67
2022-11-25T14:25:19.833Z,16.87
2022-11-25T14:27:49.087Z,18.43
2022-11-25T14:30:17.068Z,15.30
2022-11-25T14:32:57.619Z,17.43
2022-11-25T14:35:32.725Z,15.93
2022-11-25T14:38:44.576Z,19.27
2022-11-25T14:41:23.968Z,17.10
2022-11-25T14:44:04.127Z,17.03
2022-11-25T14:46:30.667Z,21.00
2022-11-25T14:48:59.308Z,19.17
2022-11-25T14:51:27.693Z,17.00
2022-11-25T14:53:54.738Z,18.20
2022-11-25T14:56:24.460Z,23.33
2022-11-25T14:58:52.189Z,21.13
2022-11-25T15:01:28.499Z,20.13
2022-11-25T15:04:19.499Z,20.03
2022-11-25T15:06:57.779Z,23.60
2022-11-25T15:09:25.498Z,24.33
2022-11-25T15:12:16.839Z,29.17
2022-11-25T15:14:48.947Z,37.80
2022-11-25T15:17:28.349Z,27.40
2022-11-25T15:19:57.616Z,25.53
2022-11-25T15:22:24.738Z,21.50
2022-11-25T15:24:55.913Z,22.10
2022-11-25T15:27:28.434Z,23.47
2022-11-25T15:29:56.040Z,29.27
2022-11-25T15:32:31.568Z,30.30
2022-11-25T15:34:59.975Z,29.00
2022-11-25T15:37:27.195Z,30.37
2022-11-25T15:40:31.298Z,26.83
2022-11-25T15:42:59.941Z,26.33
2022-11-25T15:45:27.612Z,35.60
2022-11-25T15:47:54.225Z,29.13
2022-11-25T15:50:25.354Z,30.43
2022-11-25T15:52:54.496Z,27.83
2022-11-25T15:55:33.123Z,32.30
2022-11-25T15:58:11.314Z,32.00
2022-11-25T16:00:38.231Z,33.30
2022-11-25T16:03:19.120Z,32.63
2022-11-25T16:05:56.543Z,31.57
2022-11-25T16:08:30.859Z,28.13
2022-11-25T16:11:00.232Z,28.73
2022-11-25T16:13:30.542Z,30.50
2022-11-25T16:16:00.138Z,30.20
2022-11-25T16:18:41.236Z,31.37
2022-11-25T16:21:10.965Z,27.03
2022-11-25T16:23:43.018Z,29.63
2022-11-25T16:26:12.434Z,31.77
2022-11-25T16:28:49.898Z,28.20
2022-11-25T16:31:17.176Z,30.40
2022-11-25T16:33:43.689Z,27.43
2022-11-25T16:36:10.138Z,28.13
2022-11-25T16:38:36.612Z,37.47
2022-11-25T16:41:20.594Z,29.47
2022-11-25T16:43:47.071Z,36.30
2022-11-25T16:46:19.037Z,52.50
2022-11-25T16:48:46.084Z,53.70
2022-11-25T16:51:24.122Z,68.77
2022-11-25T16:53:50.932Z,51.33
2022-11-25T16:56:29.729Z,43.97
2022-11-25T16:58:57.691Z,36.60
2022-11-25T17:01:27.046Z,36.80
2022-11-25T17:03:54.601Z,35.83
2022-11-25T17:06:24.280Z,51.57
2022-11-25T17:08:51.938Z,32.87
2022-11-25T17:11:27.066Z,35.60
2022-11-25T17:13:54.403Z,41.73
2022-11-25T17:16:23.881Z,37.90
2022-11-25T17:18:52.598Z,35.40
2022-11-25T17:21:19.054Z,32.37
2022-11-25T17:23:49.175Z,31.23
2022-11-25T17:26:24.744Z,36.77
2022-11-25T17:28:58.399Z,37.07
2022-11-25T17:31:27.458Z,30.83
2022-11-25T17:33:54.063Z,29.40
2022-11-25T17:36:21.234Z,32.03
2022-11-25T17:38:48.370Z,31.30
2022-11-25T17:41:16.622Z,28.57
2022-11-25T17:43:44.468Z,33.77
2022-11-25T17:46:11.962Z,48.37
2022-11-25T17:48:39.340Z,35.37
2022-11-25T17:51:07.578Z,67.67
2022-11-25T17:53:37.880Z,37.30
2022-11-25T17:56:26.525Z,37.87
2022-11-25T17:58:53.149Z,61.73
2022-11-25T18:01:19.718Z,49.73
2022-11-25T18:03:46.332Z,37.43
2022-11-25T18:06:12.812Z,36.23
2022-11-25T18:08:39.333Z,32.73
2022-11-25T18:11:06.726Z,30.33
2022-11-25T18:13:39.695Z,33.70
2022-11-25T18:16:07.776Z,29.83
2022-11-25T18:18:34.497Z,31.43
2022-11-25T18:21:02.438Z,33.93
2022-11-25T18:23:28.918Z,37.17
2022-11-25T18:25:56.734Z,32.50
2022-11-25T18:28:27.005Z,29.87
2022-11-25T18:30:55.880Z,30.00
2022-11-25T18:33:22.462Z,31.50
2022-11-25T18:35:48.874Z,29.03
2022-11-25T18:38:15.583Z,34.50
2022-11-25T18:40:46.395Z,32.67
2022-11-25T18:43:18.215Z,37.67
2022-11-25T18:45:45.027Z,31.83
2022-11-25T18:48:15.240Z,29.17
2022-11-25T18:50:42.410Z,26.00
2022-11-25T18:53:08.855Z,26.60
2022-11-25T18:55:35.404Z,27.50
2022-11-25T18:58:02.589Z,30.37
2022-11-25T19:00:32.662Z,33.37
2022-11-25T19:02:59.861Z,29.30
2022-11-25T19:05:30.121Z,40.50
2022-11-25T19:07:57.022Z,37.17
2022-11-25T19:10:32.051Z,29.60
2022-11-25T19:13:01.581Z,31.03
2022-11-25T19:15:28.205Z,35.30
2022-11-25T19:18:00.780Z,36.07
2022-11-25T19:20:28.555Z,33.23
2022-11-25T19:23:00.303Z,33.57
2022-11-25T19:25:27.307Z,41.40
2022-11-25T19:27:56.789Z,34.67
2022-11-25T19:30:26.181Z,33.73
2022-11-25T19:32:54.865Z,33.40
2022-11-25T19:35:33.659Z,31.70
2022-11-25T19:38:00.128Z,34.60
2022-11-25T19:40:26.661Z,32.03
2022-11-25T19:42:53.140Z,34.87
2022-11-25T19:45:20.743Z,36.77
2022-11-25T19:47:49.943Z,33.17
2022-11-25T19:50:22.537Z,35.27
2022-11-25T19:52:49.881Z,33.20
2022-11-25T19:55:24.667Z,36.00
2022-11-25T19:57:51.495Z,34.77
2022-11-25T20:00:19.630Z,39.97
2022-11-25T20:02:46.939Z,34.13
2022-11-25T20:05:19.800Z,34.90
2022-11-25T20:07:47.130Z,34.30
2022-11-25T20:10:40.106Z,41.53
2022-11-25T20:13:06.671Z,36.07
2022-11-25T20:15:33.127Z,39.40
2022-11-25T20:18:00.776Z,36.93
2022-11-25T20:20:28.927Z,40.53
2022-11-25T20:22:59.645Z,38.93
2022-11-25T20:25:26.758Z,39.20
2022-11-25T20:27:53.832Z,36.40
2022-11-25T20:30:25.909Z,44.67
2022-11-25T20:32:52.504Z,42.80
2022-11-25T20:35:19.415Z,40.93
2022-11-25T20:37:53.980Z,51.50
2022-11-25T20:40:23.748Z,41.03
2022-11-25T20:42:50.582Z,42.57
2022-11-25T20:45:22.074Z,48.73
2022-11-25T20:47:50.910Z,48.57
2022-11-25T20:50:19.148Z,39.10
2022-11-25T20:52:46.938Z,42.47
2022-11-25T20:55:24.879Z,39.23
2022-11-25T20:57:52.151Z,41.63
2022-11-25T21:00:24.185Z,53.23
2022-11-25T21:02:53.074Z,44.20
2022-11-25T21:05:20.117Z,51.23
2022-11-25T21:07:47.815Z,45.43
2022-11-25T21:10:27.756Z,42.63
2022-11-25T21:12:55.245Z,45.77
2022-11-25T21:15:23.943Z,49.10
2022-11-25T21:17:50.692Z,43.53
2022-11-25T21:20:18.368Z,37.43
2022-11-25T21:22:47.178Z,54.63
2022-11-25T21:25:15.975Z,51.33
2022-11-25T21:27:42.959Z,45.23
2022-11-25T21:30:27.233Z,47.93
2022-11-25T21:32:55.868Z,43.13
2022-11-25T21:35:24.642Z,37.93
2022-11-25T21:37:51.144Z,40.87
2022-11-25T21:40:31.298Z,40.37
2022-11-25T21:42:58.106Z,50.03
2022-11-25T21:45:24.623Z,52.47
2022-11-25T21:47:51.062Z,39.70
2022-11-25T21:50:19.501Z,47.23
2022-11-25T21:52:46.011Z,37.80
2022-11-25T21:55:13.678Z,36.07
2022-11-25T21:57:40.387Z,38.10
2022-11-25T22:00:19.871Z,35.43
2022-11-25T22:02:46.946Z,38.87
2022-11-25T22:05:17.873Z,39.13
2022-11-25T22:07:44.495Z,40.97
2022-11-25T22:10:12.727Z,40.33
2022-11-25T22:12:41.629Z,33.27
2022-11-25T22:15:28.677Z,30.83
2022-11-25T22:17:57.682Z,42.83
2022-11-25T22:20:40.388Z,35.70
2022-11-25T22:23:16.569Z,28.50
2022-11-25T22:25:43.247Z,30.27
2022-11-25T22:28:21.622Z,33.87
2022-11-25T22:30:50.442Z,41.67
2022-11-25T22:33:17.276Z,27.50
2022-11-25T22:35:43.736Z,28.03
2022-11-25T22:38:15.175Z,28.37
2022-11-25T22:40:43.224Z,24.47
2022-11-25T22:43:21.589Z,28.27
2022-11-25T22:45:48.112Z,41.70
2022-11-25T22:48:17.024Z,44.87
2022-11-25T22:50:45.529Z,27.33
2022-11-25T22:53:17.230Z,28.17
2022-11-25T22:55:44.792Z,28.00
2022-11-25T22:58:13.254Z,31.33
2022-11-25T23:00:42.694Z,27.60
2022-11-25T23:03:19.911Z,36.20
2022-11-25T23:05:46.618Z,35.87
2022-11-25T23:08:18.892Z,32.07
2022-11-25T23:10:45.473Z,35.60
2022-11-25T23:13:12.571Z,21.77
2022-11-25T23:15:41.821Z,30.60
2022-11-25T23:18:17.376Z,36.93
2022-11-25T23:20:43.901Z,25.13
2022-11-25T23:23:22.047Z,29.17
2022-11-25T23:25:49.060Z,24.13
2022-11-25T23:28:16.397Z,27.20
2022-11-25T23:30:52.287Z,29.67
2022-11-25T23:33:32.498Z,24.73
2022-11-25T23:36:02.461Z,23.67
2022-11-25T23:38:31.399Z,25.10
2022-11-25T23:40:57.869Z,25.33
2022-11-25T23:43:24.399Z,26.63
2022-11-25T23:45:56.081Z,27.00
2022-11-25T23:48:28.223Z,28.27
2022-11-25T23:50:55.980Z,25.70
2022-11-25T23:53:26.703Z,24.83
2022-11-25T23:55:53.487Z,27.13
2022-11-25T23:58:21.331Z,54.50
